Close

Questo sito utlizza cookie. Può leggere come li usiamo nella nostra Privacy Policy.

Ronchi Tower
Ronchi Tower

From Facebook

METAR & TAF

2019/05/24 08:50 LIPQ 240850Z VRB03KT CAVOK 22/15 Q1013
2019/05/24 06:21 TAF LIPQ 240500Z 2406/2506 VRB05KT 9999 SCT030 BECMG 2410/2412 20010KT BECMG 2416/2418 VRB05KT
2019/05/24 08:50 LIPZ 240850Z VRB02KT 9999 FEW025 21/15 Q1014 NOSIG
2019/05/24 06:21 TAF LIPZ 240500Z 2406/2512 03006KT 9999 FEW040 BECMG 2408/2410 16010KT BECMG 2417/2419 VRB05KT BECMG 2508/2510 16012KT
2019/05/24 08:50 LIPH 240850Z 23004KT 170V330 CAVOK 21/15 Q1014
2019/05/24 06:21 TAF LIPH 240500Z 2406/2506 VRB05KT 9999 SCT040 TEMPO 2500/2506 4000 BR
2019/05/24 08:50 LIRF 240850Z 26006KT 220V280 9999 FEW015 19/14 Q1015 NOSIG
2019/05/24 06:24 TAF LIRF 240500Z 2406/2512 VRB05KT 9999 FEW030 BECMG 2408/2410 24010KT BECMG 2417/2419 VRB05KT BECMG 2508/2510 22010KT
2019/05/24 08:50 LIML 240850Z 25003KT 180V300 9999 FEW060 21/13 Q1014 NOSIG
2019/05/24 06:21 TAF LIML 240500Z 2406/2506 VRB05KT CAVOK TEMPO 2418/2506 TSRA
2019/05/24 08:50 EDDM 240850Z VRB03KT 9999 FEW040 17/08 Q1016 NOSIG
2019/05/24 06:27 TAF EDDM 240500Z 2406/2512 VRB03KT 9999 FEW045 TEMPO 2509/2512 SHRA BKN030CB PROB30 TEMPO 2511/2512 4000 TSRA
2019/05/24 08:50 EGSS 240850Z AUTO 31007KT 280V340 9999 NCD 17/10 Q1017
2019/05/24 06:06 TAF TAF EGSS 240500Z 2406/2512 31006KT 9999 FEW040 PROB30 TEMPO 2414/2421 8000 SHRA PROB30 TEMPO 2503/2508 8000 BKN010 PROB30 TEMPO 2510/2512 8000 SHRA
2019/05/24 08:50 EDDF 240850Z VRB02KT 9999 FEW040 20/10 Q1015 NOSIG
2019/05/24 06:27 TAF TAF EDDF 240500Z 2406/2512 VRB03KT CAVOK TEMPO 2412/2420 33005KT BECMG 2504/2506 35005KT

FlightRadar24

Radar Meteo

Traffic data

Agosto 2018

Passeggeri: 63892-12,9% (rank: 23)
Nazionali 34490 -19,8%
Internazionali 29193 -3,0%

Movimenti: 1307+11,7% (rank: 24)
Tot commerciale 556 -7,2%
Aviazione generale 751 +31,5%

Cargo (tons): 20,6+62,5% (rank: 21)

Gennaio - Agosto 2018

Passeggeri: 507438-3,5% (rank: 23)
Nazionali 322655 -4,9%
Internazionali 182927 -0,7%

Movimenti: 10366-4,25 (rank: 22)
Tot commerciale 5328 -11,0%
Aviazione generale 5038 +4,2%

Cargo (tons): 299,2+61,9% (rank: 20)

Photo

Douglas DC-6B
Douglas DC-6B
Distinct views: 20
Douglas DC-6B
Douglas DC-6B
Distinct views: 64
Douglas DC-6B
Douglas DC-6B
Distinct views: 168
Boeing 737-800
Boeing 737-800
Total views: 1219